Time;durP1;ratioP1;P1;durP2;ratioP2;P2;SDS_P1;SDS_P2;PMS_P1;PMS_P2;Temp;Humidity;BMP_temperature;BMP_pressure;BME280_temperature;BME280_humidity;BME280_pressure;Samples;Min_cycle;Max_cycle;Signal;HPM_P1;HPM_P2
2024/01/10 00:02:20;;;;;;;;;;;28.80;99.90;;;;;;5092342;28;19916;-67
2024/01/10 00:04:47;;;;;;;;;;;28.90;99.90;;;;;;5092421;28;20450;-67
2024/01/10 00:07:13;;;;;;;;;;;28.80;99.90;;;;;;5092200;28;19916;-65
2024/01/10 00:09:40;;;;;;;;;;;28.90;99.90;;;;;;5092156;28;19915;-66
2024/01/10 00:12:07;;;;;;;;;;;29.10;99.90;;;;;;5092347;28;19985;-66
2024/01/10 00:14:33;;;;;;;;;;;29.20;99.90;;;;;;5092488;28;20007;-67
2024/01/10 00:17:00;;;;;;;;;;;29.30;99.90;;;;;;5092546;28;20007;-67
2024/01/10 00:19:26;;;;;;;;;;;29.30;99.90;;;;;;5095448;28;19966;-70
2024/01/10 00:21:53;;;;;;;;;;;29.10;99.90;;;;;;5077591;28;19912;-67
2024/01/10 00:24:20;;;;;;;;;;;29.10;99.90;;;;;;5095871;28;19911;-70
2024/01/10 00:26:46;;;;;;;;;;;29.10;99.90;;;;;;5096166;28;20254;-67
2024/01/10 00:29:13;;;;;;;;;;;28.90;99.90;;;;;;5095712;28;19916;-70
2024/01/10 00:31:40;;;;;;;;;;;28.90;99.90;;;;;;5095670;28;19969;-68
2024/01/10 00:34:06;;;;;;;;;;;29.10;99.90;;;;;;5095399;28;19908;-69
2024/01/10 00:36:33;;;;;;;;;;;29.20;99.90;;;;;;5095161;28;19908;-66
2024/01/10 00:39:00;;;;;;;;;;;29.30;99.90;;;;;;5095778;28;19908;-66
2024/01/10 00:41:26;;;;;;;;;;;29.30;99.90;;;;;;5095304;28;19994;-69
2024/01/10 00:43:53;;;;;;;;;;;29.00;99.90;;;;;;5095335;28;20003;-66
2024/01/10 00:46:21;;;;;;;;;;;29.00;99.90;;;;;;5095689;28;19912;-67
2024/01/10 00:48:48;;;;;;;;;;;28.90;99.90;;;;;;5095671;28;19912;-66
2024/01/10 00:51:15;;;;;;;;;;;28.80;99.90;;;;;;5095315;28;19908;-67
2024/01/10 00:53:42;;;;;;;;;;;29.00;99.90;;;;;;5095123;28;19962;-66
2024/01/10 00:56:09;;;;;;;;;;;29.30;99.90;;;;;;5095216;28;19964;-66
2024/01/10 00:58:36;;;;;;;;;;;29.70;99.90;;;;;;5095393;28;19912;-66
2024/01/10 01:01:04;;;;;;;;;;;30.00;99.90;;;;;;5095258;28;20402;-66
2024/01/10 01:03:31;;;;;;;;;;;30.10;99.90;;;;;;5077303;28;19912;-67
2024/01/10 01:05:58;;;;;;;;;;;30.30;99.90;;;;;;5094869;28;20269;-67
2024/01/10 01:08:25;;;;;;;;;;;30.50;99.90;;;;;;5095007;28;20110;-68
2024/01/10 01:10:54;;;;;;;;;;;30.70;99.90;;;;;;5094642;28;19908;-66
2024/01/10 01:13:22;;;;;;;;;;;30.70;99.90;;;;;;5095028;28;19919;-66
2024/01/10 01:15:49;;;;;;;;;;;30.50;99.90;;;;;;5095200;28;19915;-67
2024/01/10 01:18:16;;;;;;;;;;;30.40;99.90;;;;;;5094801;28;20376;-66
2024/01/10 01:20:43;;;;;;;;;;;30.80;99.90;;;;;;5076635;28;19908;-67
2024/01/10 01:23:11;;;;;;;;;;;30.90;99.90;;;;;;5094571;28;19997;-67
2024/01/10 01:25:38;;;;;;;;;;;30.90;99.90;;;;;;5094444;28;20436;-67
2024/01/10 01:28:06;;;;;;;;;;;31.20;99.90;;;;;;5094631;28;20010;-67
2024/01/10 01:30:41;;;;;;;;;;;31.50;99.90;;;;;;5076566;28;19912;-66
2024/01/10 01:33:08;;;;;;;;;;;31.30;99.90;;;;;;5094420;28;19962;-68
2024/01/10 01:35:35;;;;;;;;;;;31.10;99.90;;;;;;5094241;28;19916;-67
2024/01/10 01:38:02;;;;;;;;;;;31.00;99.90;;;;;;5076278;28;20023;-66
2024/01/10 01:40:29;;;;;;;;;;;31.20;99.90;;;;;;5094444;28;19915;-67
2024/01/10 01:42:58;;;;;;;;;;;31.20;99.90;;;;;;5075933;28;19908;-66
2024/01/10 01:45:25;;;;;;;;;;;31.00;99.90;;;;;;5076165;28;19911;-66
2024/01/10 01:47:53;;;;;;;;;;;30.80;99.90;;;;;;5103070;27;19924;-73
2024/01/10 01:50:25;;;;;;;;;;;30.80;99.90;;;;;;5097887;28;19911;-67
2024/01/10 01:52:52;;;;;;;;;;;31.00;99.90;;;;;;5101589;27;19916;-67
2024/01/10 01:55:20;;;;;;;;;;;31.20;99.90;;;;;;5078335;28;19927;-66
2024/01/10 01:57:47;;;;;;;;;;;31.30;99.90;;;;;;5111719;28;20010;-66
2024/01/10 02:00:15;;;;;;;;;;;31.20;99.90;;;;;;5072467;28;19966;-67
2024/01/10 02:02:44;;;;;;;;;;;31.10;99.90;;;;;;5108577;28;19960;-67
2024/01/10 02:05:15;;;;;;;;;;;30.90;99.90;;;;;;5098313;28;20427;-66
2024/01/10 02:07:42;;;;;;;;;;;30.90;99.90;;;;;;5097660;28;19943;-67
2024/01/10 02:10:09;;;;;;;;;;;30.80;99.90;;;;;;5106214;28;20417;-67
2024/01/10 02:12:37;;;;;;;;;;;31.10;99.90;;;;;;5110944;28;19915;-66
2024/01/10 02:15:05;;;;;;;;;;;31.40;99.90;;;;;;5093686;28;19920;-65
2024/01/10 02:17:33;;;;;;;;;;;31.40;99.90;;;;;;5076436;28;20011;-66
2024/01/10 02:20:10;;;;;;;;;;;31.50;99.90;;;;;;5095039;28;19919;-66
2024/01/10 02:22:37;;;;;;;;;;;31.60;99.90;;;;;;5099571;28;19920;-66
2024/01/10 02:25:07;;;;;;;;;;;31.60;99.90;;;;;;5099912;28;19919;-69
2024/01/10 02:27:43;;;;;;;;;;;31.50;99.90;;;;;;5097711;28;19920;-64
2024/01/10 02:30:11;;;;;;;;;;;31.60;99.90;;;;;;5119682;27;19943;-65
2024/01/10 02:32:38;;;;;;;;;;;31.80;99.90;;;;;;5132828;27;19908;-66
2024/01/10 02:35:06;;;;;;;;;;;31.90;99.90;;;;;;5133562;27;20360;-66
2024/01/10 02:37:33;;;;;;;;;;;31.70;99.90;;;;;;5133963;27;19908;-68
2024/01/10 02:40:00;;;;;;;;;;;31.50;99.90;;;;;;5133097;27;19922;-66
2024/01/10 02:42:30;;;;;;;;;;;31.70;99.90;;;;;;5131673;27;19911;-66
2024/01/10 02:44:57;;;;;;;;;;;31.40;99.90;;;;;;5114740;27;19915;-66
2024/01/10 02:47:24;;;;;;;;;;;31.60;99.90;;;;;;5133739;27;19922;-66
2024/01/10 02:49:56;;;;;;;;;;;31.90;99.90;;;;;;5133830;27;19914;-66
2024/01/10 02:52:23;;;;;;;;;;;31.90;99.90;;;;;;5132650;27;19915;-66
2024/01/10 02:54:50;;;;;;;;;;;32.00;99.90;;;;;;5133886;27;19919;-67
2024/01/10 02:57:17;;;;;;;;;;;32.30;99.90;;;;;;5115503;27;19958;-68
2024/01/10 02:59:44;;;;;;;;;;;32.70;99.90;;;;;;5115431;27;19911;-67
2024/01/10 03:02:12;;;;;;;;;;;32.70;99.40;;;;;;5133961;27;19907;-66
2024/01/10 03:04:39;;;;;;;;;;;32.80;99.40;;;;;;5115207;28;20352;-66
2024/01/10 03:07:06;;;;;;;;;;;32.60;99.40;;;;;;5133116;27;20440;-68
2024/01/10 03:09:33;;;;;;;;;;;32.70;99.20;;;;;;5133869;27;19907;-66
2024/01/10 03:12:00;;;;;;;;;;;32.70;99.50;;;;;;5132396;27;19911;-66
2024/01/10 03:14:27;;;;;;;;;;;32.70;99.30;;;;;;5133658;28;19967;-65
2024/01/10 03:16:56;;;;;;;;;;;33.30;98.50;;;;;;5133583;27;19951;-66
2024/01/10 03:19:23;;;;;;;;;;;33.30;97.60;;;;;;5133562;28;19917;-68
2024/01/10 03:21:50;;;;;;;;;;;32.90;98.90;;;;;;5133652;28;20417;-67
2024/01/10 03:24:17;;;;;;;;;;;33.30;98.30;;;;;;5133741;28;19907;-67
2024/01/10 03:26:43;;;;;;;;;;;33.90;97.80;;;;;;5133467;28;20394;-67
2024/01/10 03:29:10;;;;;;;;;;;34.80;96.50;;;;;;5133642;28;19907;-67
2024/01/10 03:31:37;;;;;;;;;;;35.20;95.30;;;;;;5133547;28;19911;-67
2024/01/10 03:34:04;;;;;;;;;;;35.90;94.80;;;;;;5133139;28;20326;-66
2024/01/10 03:36:30;;;;;;;;;;;34.90;95.60;;;;;;5133543;28;19911;-67
2024/01/10 03:38:57;;;;;;;;;;;35.20;95.50;;;;;;5133465;28;19908;-66
2024/01/10 03:41:24;;;;;;;;;;;35.90;94.90;;;;;;5115004;28;19937;-67
2024/01/10 03:43:50;;;;;;;;;;;37.10;93.60;;;;;;5133335;28;19915;-67
2024/01/10 03:46:17;;;;;;;;;;;36.90;93.10;;;;;;5133209;28;19963;-67
2024/01/10 03:48:51;;;;;;;;;;;37.00;93.00;;;;;;5133485;28;19908;-67
2024/01/10 03:51:18;;;;;;;;;;;37.30;93.00;;;;;;5133259;28;20305;-67
2024/01/10 03:53:45;;;;;;;;;;;38.00;92.20;;;;;;5137226;27;19914;-67
2024/01/10 03:56:12;;;;;;;;;;;38.60;91.10;;;;;;5137344;27;20010;-67
2024/01/10 03:58:39;;;;;;;;;;;38.70;90.30;;;;;;5137249;27;20356;-68
2024/01/10 04:01:08;;;;;;;;;;;37.50;91.10;;;;;;5136989;27;19915;-67
2024/01/10 04:03:35;;;;;;;;;;;37.80;90.70;;;;;;5137363;27;19953;-67
2024/01/10 04:06:02;;;;;;;;;;;37.30;91.40;;;;;;5137270;27;20014;-67
2024/01/10 04:08:29;;;;;;;;;;;38.30;90.60;;;;;;5136961;27;20275;-67
2024/01/10 04:10:56;;;;;;;;;;;38.90;89.80;;;;;;5137035;27;19919;-67
2024/01/10 04:13:22;;;;;;;;;;;39.20;89.00;;;;;;5136975;27;19912;-67
2024/01/10 04:15:49;;;;;;;;;;;39.50;88.90;;;;;;5136931;27;19912;-67
2024/01/10 04:18:15;;;;;;;;;;;39.60;88.00;;;;;;5136918;27;19908;-66
2024/01/10 04:20:42;;;;;;;;;;;40.10;85.60;;;;;;5136692;27;20149;-67
2024/01/10 04:23:09;;;;;;;;;;;39.80;86.90;;;;;;5136925;27;20367;-66
2024/01/10 04:25:35;;;;;;;;;;;39.90;87.00;;;;;;5136982;27;19914;-67
2024/01/10 04:28:02;;;;;;;;;;;39.00;86.60;;;;;;5136898;27;19923;-67
2024/01/10 04:30:29;;;;;;;;;;;39.30;86.00;;;;;;5136548;27;19907;-66
2024/01/10 04:32:55;;;;;;;;;;;38.60;89.10;;;;;;5136591;27;19915;-68
2024/01/10 04:35:22;;;;;;;;;;;39.40;87.90;;;;;;5136382;27;19908;-67
2024/01/10 04:37:48;;;;;;;;;;;39.10;87.30;;;;;;5136579;27;20356;-67
2024/01/10 04:40:15;;;;;;;;;;;39.30;85.10;;;;;;5136285;27;19907;-67
2024/01/10 04:42:42;;;;;;;;;;;38.70;87.10;;;;;;5136405;27;19912;-68
2024/01/10 04:45:09;;;;;;;;;;;39.20;86.20;;;;;;5136659;27;19911;-67
2024/01/10 04:47:36;;;;;;;;;;;39.30;86.30;;;;;;5136357;27;19954;-65
2024/01/10 04:50:02;;;;;;;;;;;38.80;85.70;;;;;;5136395;27;19907;-67
2024/01/10 04:52:29;;;;;;;;;;;38.50;87.90;;;;;;5136287;27;19947;-66
2024/01/10 04:54:56;;;;;;;;;;;38.10;87.10;;;;;;5136109;27;19919;-66
2024/01/10 04:57:22;;;;;;;;;;;38.90;87.10;;;;;;5136249;27;19911;-67
2024/01/10 04:59:49;;;;;;;;;;;39.40;86.10;;;;;;5136298;27;20428;-66
2024/01/10 05:02:16;;;;;;;;;;;39.60;86.10;;;;;;5136098;27;19907;-67
2024/01/10 05:04:42;;;;;;;;;;;40.40;84.10;;;;;;5135609;27;19907;-66
2024/01/10 05:07:09;;;;;;;;;;;40.70;84.50;;;;;;5136190;27;19916;-66
2024/01/10 05:09:36;;;;;;;;;;;41.20;82.50;;;;;;5136071;27;20264;-66
2024/01/10 05:12:03;;;;;;;;;;;40.10;83.40;;;;;;5135945;27;19931;-68
2024/01/10 05:14:30;;;;;;;;;;;39.20;84.10;;;;;;5135939;27;20095;-65
2024/01/10 05:16:56;;;;;;;;;;;37.20;88.20;;;;;;5135964;27;19907;-65
2024/01/10 05:19:23;;;;;;;;;;;36.00;90.10;;;;;;5135808;27;19907;-66
2024/01/10 05:21:49;;;;;;;;;;;34.70;91.00;;;;;;5135878;27;20364;-65
2024/01/10 05:24:18;;;;;;;;;;;33.20;93.70;;;;;;5135678;27;19929;-65
2024/01/10 05:26:45;;;;;;;;;;;32.30;94.40;;;;;;5135498;27;20010;-67
2024/01/10 05:29:11;;;;;;;;;;;31.90;95.30;;;;;;5135471;27;19958;-65
2024/01/10 05:31:38;;;;;;;;;;;31.30;96.40;;;;;;5135751;27;19914;-65
2024/01/10 05:34:05;;;;;;;;;;;31.00;96.80;;;;;;5135453;27;19914;-67
2024/01/10 05:36:33;;;;;;;;;;;30.80;97.90;;;;;;5135335;27;19915;-65
2024/01/10 05:39:00;;;;;;;;;;;30.90;97.70;;;;;;5135136;27;19952;-66
2024/01/10 05:41:27;;;;;;;;;;;30.70;98.00;;;;;;5135397;27;19911;-66
2024/01/10 05:43:54;;;;;;;;;;;30.70;98.30;;;;;;5135338;27;19907;-67
2024/01/10 05:46:20;;;;;;;;;;;30.80;98.20;;;;;;5135177;27;20355;-67
2024/01/10 05:48:48;;;;;;;;;;;30.90;98.50;;;;;;5135139;27;19915;-65
2024/01/10 05:51:14;;;;;;;;;;;30.80;99.10;;;;;;5134985;27;19908;-67
2024/01/10 05:53:41;;;;;;;;;;;30.50;99.70;;;;;;5134999;27;19919;-65
2024/01/10 05:56:07;;;;;;;;;;;30.30;99.90;;;;;;5134985;27;19920;-67
2024/01/10 05:58:35;;;;;;;;;;;30.40;99.90;;;;;;5135287;27;19911;-66
2024/01/10 06:01:02;;;;;;;;;;;30.40;99.90;;;;;;5134853;27;20334;-67
2024/01/10 06:03:28;;;;;;;;;;;30.40;99.90;;;;;;5135086;27;19907;-65
2024/01/10 06:05:55;;;;;;;;;;;30.50;99.90;;;;;;5134868;27;19995;-66
2024/01/10 06:08:25;;;;;;;;;;;31.20;99.50;;;;;;5134862;27;19962;-67
2024/01/10 06:10:52;;;;;;;;;;;31.80;98.50;;;;;;5134610;27;19907;-66
2024/01/10 06:13:19;;;;;;;;;;;31.60;99.10;;;;;;5134520;27;19975;-67
2024/01/10 06:15:45;;;;;;;;;;;31.80;98.70;;;;;;5133863;27;19914;-67
2024/01/10 06:18:12;;;;;;;;;;;32.10;98.70;;;;;;5134882;27;20380;-67
2024/01/10 06:20:39;;;;;;;;;;;32.40;98.20;;;;;;5134470;27;20002;-68
2024/01/10 06:23:06;;;;;;;;;;;32.10;98.50;;;;;;5134166;27;19919;-67
2024/01/10 06:25:32;;;;;;;;;;;31.80;98.80;;;;;;5134319;27;20288;-67
2024/01/10 06:27:59;;;;;;;;;;;31.90;99.00;;;;;;5134418;27;19922;-66
2024/01/10 06:30:25;;;;;;;;;;;31.70;99.00;;;;;;5134464;27;19957;-66
2024/01/10 06:32:52;;;;;;;;;;;31.60;99.70;;;;;;5134193;27;20018;-70
2024/01/10 06:35:19;;;;;;;;;;;31.60;99.80;;;;;;5134395;27;19914;-67
2024/01/10 06:37:46;;;;;;;;;;;32.00;99.80;;;;;;5134027;27;19998;-68
2024/01/10 06:40:13;;;;;;;;;;;32.00;99.10;;;;;;5134371;27;20364;-67
2024/01/10 06:42:40;;;;;;;;;;;31.80;99.40;;;;;;5134062;27;19951;-65
2024/01/10 06:45:07;;;;;;;;;;;31.40;99.90;;;;;;5134068;27;19908;-67
2024/01/10 06:47:34;;;;;;;;;;;31.40;99.90;;;;;;5133841;27;20299;-66
2024/01/10 06:50:00;;;;;;;;;;;31.30;99.90;;;;;;5134437;27;20448;-67
2024/01/10 06:52:27;;;;;;;;;;;30.90;99.90;;;;;;5133978;27;19951;-66
2024/01/10 06:54:54;;;;;;;;;;;30.50;99.90;;;;;;5134113;27;20283;-66
2024/01/10 06:57:20;;;;;;;;;;;30.30;99.90;;;;;;5133793;27;19907;-67
2024/01/10 06:59:47;;;;;;;;;;;30.00;99.90;;;;;;5134034;27;20360;-66
2024/01/10 07:02:14;;;;;;;;;;;29.80;99.90;;;;;;5134005;27;20369;-66
2024/01/10 07:04:40;;;;;;;;;;;29.60;99.90;;;;;;5134069;27;19908;-68
2024/01/10 07:07:08;;;;;;;;;;;29.50;99.90;;;;;;5133856;27;19915;-66
2024/01/10 07:09:34;;;;;;;;;;;29.60;99.90;;;;;;5133499;27;19908;-67
2024/01/10 07:12:04;;;;;;;;;;;29.40;99.90;;;;;;5133563;27;19954;-65
2024/01/10 07:14:30;;;;;;;;;;;29.30;99.90;;;;;;5133622;27;19907;-65
2024/01/10 07:16:57;;;;;;;;;;;29.30;99.90;;;;;;5133806;28;19960;-66
2024/01/10 07:19:24;;;;;;;;;;;28.90;99.90;;;;;;5133706;27;20373;-66
2024/01/10 07:21:50;;;;;;;;;;;28.60;99.90;;;;;;5133517;28;20016;-66
2024/01/10 07:24:17;;;;;;;;;;;28.70;99.90;;;;;;5133819;28;20276;-66
2024/01/10 07:26:44;;;;;;;;;;;28.70;99.90;;;;;;5134015;27;19912;-65
2024/01/10 07:29:10;;;;;;;;;;;28.80;99.90;;;;;;5137968;27;19950;-65
2024/01/10 07:31:37;;;;;;;;;;;28.90;99.90;;;;;;5138034;27;20005;-65
2024/01/10 07:34:06;;;;;;;;;;;29.10;99.90;;;;;;5137654;27;19914;-67
2024/01/10 07:36:36;;;;;;;;;;;29.00;99.90;;;;;;5137872;27;20348;-67
2024/01/10 07:39:03;;;;;;;;;;;28.90;99.90;;;;;;5137758;27;19935;-67
2024/01/10 07:41:30;;;;;;;;;;;28.60;99.90;;;;;;5137622;27;19908;-67
2024/01/10 07:43:57;;;;;;;;;;;28.50;99.90;;;;;;5137410;27;19915;-68
2024/01/10 07:46:23;;;;;;;;;;;28.70;99.90;;;;;;5137441;27;19918;-68
2024/01/10 07:48:50;;;;;;;;;;;28.90;99.90;;;;;;5137667;27;20298;-68
2024/01/10 07:51:17;;;;;;;;;;;28.90;99.90;;;;;;5137810;27;19911;-67
2024/01/10 07:53:43;;;;;;;;;;;28.90;99.90;;;;;;5137466;27;19922;-64
2024/01/10 07:56:12;;;;;;;;;;;28.90;99.90;;;;;;5137470;27;19945;-67
2024/01/10 07:58:39;;;;;;;;;;;29.00;99.90;;;;;;5137286;27;19911;-69
2024/01/10 08:01:05;;;;;;;;;;;29.00;99.90;;;;;;5118945;27;19907;-66
2024/01/10 08:03:33;;;;;;;;;;;28.90;99.90;;;;;;5137349;27;19912;-68
2024/01/10 08:05:59;;;;;;;;;;;28.80;99.90;;;;;;5137675;27;19953;-65
2024/01/10 08:08:26;;;;;;;;;;;28.80;99.90;;;;;;5137575;27;19912;-67
2024/01/10 08:10:53;;;;;;;;;;;28.60;99.90;;;;;;5137011;27;19907;-67
2024/01/10 08:13:19;;;;;;;;;;;28.60;99.90;;;;;;5136934;27;19915;-68
2024/01/10 08:15:46;;;;;;;;;;;28.60;99.90;;;;;;5137207;27;19908;-66
2024/01/10 08:18:14;;;;;;;;;;;28.50;99.90;;;;;;5118677;27;20379;-66
2024/01/10 08:20:40;;;;;;;;;;;28.30;99.90;;;;;;5136881;27;19922;-65
2024/01/10 08:23:08;;;;;;;;;;;28.10;99.90;;;;;;5136814;27;20405;-67
2024/01/10 08:25:34;;;;;;;;;;;27.90;99.90;;;;;;5137337;27;19914;-68
2024/01/10 08:28:01;;;;;;;;;;;27.80;99.90;;;;;;5137050;27;19916;-65
2024/01/10 08:30:27;;;;;;;;;;;27.70;99.90;;;;;;5136806;27;19908;-68
2024/01/10 08:32:54;;;;;;;;;;;27.60;99.90;;;;;;5136815;27;19907;-66
2024/01/10 08:35:21;;;;;;;;;;;27.60;99.90;;;;;;5136878;27;19953;-67
2024/01/10 08:37:48;;;;;;;;;;;27.40;99.90;;;;;;5136454;27;20345;-66
2024/01/10 08:40:15;;;;;;;;;;;27.30;99.90;;;;;;5135777;27;19942;-67
2024/01/10 08:42:42;;;;;;;;;;;27.10;99.90;;;;;;5136324;27;19956;-68
2024/01/10 08:45:11;;;;;;;;;;;27.10;99.90;;;;;;5136462;27;19912;-67
2024/01/10 08:47:37;;;;;;;;;;;27.00;99.90;;;;;;5136024;27;20052;-66
2024/01/10 08:50:10;;;;;;;;;;;26.80;99.90;;;;;;5136360;27;20276;-66
2024/01/10 08:52:40;;;;;;;;;;;26.80;99.90;;;;;;5136044;27;20409;-67
2024/01/10 08:55:07;;;;;;;;;;;26.80;99.90;;;;;;5136182;27;19920;-67
2024/01/10 08:57:34;;;;;;;;;;;26.80;99.90;;;;;;5136042;27;19990;-67
2024/01/10 09:00:00;;;;;;;;;;;26.60;99.90;;;;;;5136448;27;19908;-69
2024/01/10 09:02:27;;;;;;;;;;;26.50;99.90;;;;;;5136251;27;19911;-68
2024/01/10 09:04:54;;;;;;;;;;;26.40;99.90;;;;;;5136060;27;19929;-72
2024/01/10 09:07:21;;;;;;;;;;;26.50;99.90;;;;;;5136004;27;19915;-66
2024/01/10 09:09:48;;;;;;;;;;;26.50;99.90;;;;;;5106171;27;19916;-70
2024/01/10 09:12:14;;;;;;;;;;;26.40;99.90;;;;;;5094532;28;19912;-71
2024/01/10 09:14:41;;;;;;;;;;;26.40;99.90;;;;;;5094787;28;19938;-71
2024/01/10 09:17:08;;;;;;;;;;;26.40;99.90;;;;;;5085300;28;19915;-70
2024/01/10 09:19:34;;;;;;;;;;;26.40;99.90;;;;;;5113643;28;19907;-64
2024/01/10 09:22:01;;;;;;;;;;;26.50;99.90;;;;;;5095587;28;20292;-67
2024/01/10 09:24:28;;;;;;;;;;;26.40;99.90;;;;;;5094028;28;19912;-68
2024/01/10 09:26:54;;;;;;;;;;;26.40;99.90;;;;;;5094502;28;19922;-69
2024/01/10 09:29:21;;;;;;;;;;;26.30;99.90;;;;;;5094557;28;19909;-69
2024/01/10 09:31:47;;;;;;;;;;;26.30;99.90;;;;;;5095163;28;19916;-70
2024/01/10 09:34:14;;;;;;;;;;;26.30;99.90;;;;;;5114694;28;19908;-67
2024/01/10 09:36:41;;;;;;;;;;;26.20;99.90;;;;;;5106754;28;19912;-71
2024/01/10 09:39:13;;;;;;;;;;;26.20;99.90;;;;;;5095661;28;19912;-74
2024/01/10 09:41:58;;;;;;;;;;;26.20;99.90;;;;;;5095187;28;19908;-69
2024/01/10 09:44:25;;;;;;;;;;;26.20;99.90;;;;;;5100613;28;20371;-67
2024/01/10 09:46:52;;;;;;;;;;;26.20;99.90;;;;;;5107109;28;19915;-72
2024/01/10 09:49:22;;;;;;;;;;;26.20;99.90;;;;;;5114078;28;19965;-68
2024/01/10 09:51:50;;;;;;;;;;;26.20;99.90;;;;;;5114386;28;19912;-72
2024/01/10 09:54:16;;;;;;;;;;;26.20;99.90;;;;;;5114385;28;19919;-71
2024/01/10 09:56:43;;;;;;;;;;;26.30;99.90;;;;;;5094526;28;19916;-73
2024/01/10 09:59:10;;;;;;;;;;;26.30;99.90;;;;;;5094072;28;20402;-70
2024/01/10 10:01:40;;;;;;;;;;;26.40;99.90;;;;;;5093964;28;19908;-67
2024/01/10 10:04:08;;;;;;;;;;;26.40;99.90;;;;;;5093774;28;19911;-67
2024/01/10 10:06:35;;;;;;;;;;;26.40;99.90;;;;;;5110511;28;19919;-68
2024/01/10 10:09:02;;;;;;;;;;;26.40;99.90;;;;;;5114176;28;19915;-68
2024/01/10 10:11:29;;;;;;;;;;;26.50;99.90;;;;;;5114415;28;19914;-67
2024/01/10 10:13:56;;;;;;;;;;;26.50;99.90;;;;;;5100776;28;19919;-68
2024/01/10 10:16:29;;;;;;;;;;;26.40;99.90;;;;;;5093323;28;20369;-68
2024/01/10 10:18:57;;;;;;;;;;;26.30;99.90;;;;;;5093600;28;19912;-69
2024/01/10 10:21:29;;;;;;;;;;;26.30;99.90;;;;;;5075407;28;20377;-75
2024/01/10 10:24:05;;;;;;;;;;;26.30;99.90;;;;;;5093323;28;20329;-69
2024/01/10 10:26:35;;;;;;;;;;;26.30;99.90;;;;;;5094358;28;19920;-68
2024/01/10 10:29:02;;;;;;;;;;;26.30;99.90;;;;;;5093122;28;19912;-68
2024/01/10 10:31:31;;;;;;;;;;;26.40;99.90;;;;;;5093274;28;20321;-68
2024/01/10 10:33:59;;;;;;;;;;;26.40;99.90;;;;;;5075346;28;20268;-69
2024/01/10 10:36:26;;;;;;;;;;;26.30;99.90;;;;;;5093417;28;19908;-69
2024/01/10 10:38:53;;;;;;;;;;;26.20;99.90;;;;;;5093240;28;19908;-67
2024/01/10 10:41:19;;;;;;;;;;;26.20;99.90;;;;;;5093395;28;19908;-72
2024/01/10 10:43:47;;;;;;;;;;;26.20;99.90;;;;;;5104206;28;19964;-66
2024/01/10 10:46:14;;;;;;;;;;;26.10;99.90;;;;;;5113865;28;20271;-68
2024/01/10 10:48:41;;;;;;;;;;;26.10;99.90;;;;;;5113716;28;20288;-67
2024/01/10 10:51:16;;;;;;;;;;;26.10;99.90;;;;;;5113466;28;19915;-68
2024/01/10 10:53:45;;;;;;;;;;;26.10;99.90;;;;;;5112993;28;19912;-67
2024/01/10 10:56:13;;;;;;;;;;;26.10;99.90;;;;;;5113375;28;19924;-67
2024/01/10 10:58:40;;;;;;;;;;;26.00;99.90;;;;;;5113384;28;19915;-72
2024/01/10 11:01:08;;;;;;;;;;;26.00;99.90;;;;;;5112929;28;19908;-68
2024/01/10 11:03:39;;;;;;;;;;;26.00;99.90;;;;;;5112882;28;19907;-75
2024/01/10 11:06:06;;;;;;;;;;;25.90;99.90;;;;;;5112626;28;20356;-67
2024/01/10 11:08:53;;;;;;;;;;;25.90;99.90;;;;;;5113332;28;19915;-69
2024/01/10 11:11:26;;;;;;;;;;;25.90;99.90;;;;;;5112565;28;19918;-68
2024/01/10 11:14:16;;;;;;;;;;;25.80;99.90;;;;;;5113071;28;19907;-67
2024/01/10 11:17:00;;;;;;;;;;;25.80;99.90;;;;;;5104386;28;20265;-66
2024/01/10 11:19:45;;;;;;;;;;;25.80;99.90;;;;;;5112843;28;20403;-66
2024/01/10 11:22:12;;;;;;;;;;;25.90;99.90;;;;;;5112992;28;19908;-64
2024/01/10 11:24:38;;;;;;;;;;;25.80;99.90;;;;;;5112900;28;19914;-73
2024/01/10 11:27:12;;;;;;;;;;;25.80;99.90;;;;;;5112922;28;19916;-67
2024/01/10 11:29:39;;;;;;;;;;;25.80;99.90;;;;;;5112712;28;20360;-67
2024/01/10 11:32:16;;;;;;;;;;;25.70;99.90;;;;;;5112661;28;20287;-69
2024/01/10 11:34:56;;;;;;;;;;;25.70;99.90;;;;;;5112815;28;19947;-66
2024/01/10 11:37:22;;;;;;;;;;;25.60;99.90;;;;;;5112843;28;20283;-68
2024/01/10 11:39:51;;;;;;;;;;;25.60;99.90;;;;;;5112385;28;19915;-69
2024/01/10 11:42:23;;;;;;;;;;;25.60;99.90;;;;;;5112101;28;19923;-71
2024/01/10 11:44:51;;;;;;;;;;;25.60;99.90;;;;;;5112636;28;20387;-66
2024/01/10 11:47:19;;;;;;;;;;;25.50;99.90;;;;;;5112805;28;19919;-66
2024/01/10 11:49:55;;;;;;;;;;;25.50;99.90;;;;;;5112946;28;19911;-72
2024/01/10 11:52:25;;;;;;;;;;;25.40;99.90;;;;;;5112472;28;19908;-66
2024/01/10 11:54:51;;;;;;;;;;;25.40;99.90;;;;;;5112243;28;19963;-67
2024/01/10 11:57:18;;;;;;;;;;;25.50;99.90;;;;;;5112570;28;19912;-66
2024/01/10 11:59:45;;;;;;;;;;;25.40;99.90;;;;;;5112933;28;19993;-66
2024/01/10 12:02:12;;;;;;;;;;;25.50;99.90;;;;;;5109591;28;19916;-70
2024/01/10 12:04:39;;;;;;;;;;;25.50;99.90;;;;;;5092819;28;20313;-69
2024/01/10 12:07:07;;;;;;;;;;;25.50;99.90;;;;;;5092178;28;19923;-71
2024/01/10 12:09:35;;;;;;;;;;;25.50;99.90;;;;;;5092806;28;20403;-68
2024/01/10 12:12:06;;;;;;;;;;;25.40;99.90;;;;;;5092224;28;19912;-67
2024/01/10 12:14:34;;;;;;;;;;;25.50;99.90;;;;;;5095626;28;19959;-69
2024/01/10 12:17:00;;;;;;;;;;;25.50;99.90;;;;;;5095852;28;19954;-70
2024/01/10 12:19:28;;;;;;;;;;;25.40;99.90;;;;;;5096129;28;19995;-67
2024/01/10 12:21:54;;;;;;;;;;;25.40;99.90;;;;;;5095763;28;19908;-71
2024/01/10 12:24:21;;;;;;;;;;;25.50;99.90;;;;;;5096411;28;19931;-67
2024/01/10 12:26:48;;;;;;;;;;;25.40;99.90;;;;;;5097057;28;19956;-68
2024/01/10 12:29:22;;;;;;;;;;;25.40;99.90;;;;;;5095763;28;20007;-66
2024/01/10 12:31:49;;;;;;;;;;;25.40;99.90;;;;;;5095934;28;19930;-68
2024/01/10 12:34:15;;;;;;;;;;;25.40;99.90;;;;;;5095730;28;19972;-66
2024/01/10 12:36:43;;;;;;;;;;;25.40;99.90;;;;;;5095451;28;20012;-67
2024/01/10 12:39:12;;;;;;;;;;;25.40;99.90;;;;;;5095800;28;19959;-69
2024/01/10 12:41:40;;;;;;;;;;;25.40;99.90;;;;;;5077759;28;19912;-73
2024/01/10 12:44:07;;;;;;;;;;;25.30;99.90;;;;;;5095599;28;20385;-70
2024/01/10 12:46:33;;;;;;;;;;;25.30;99.90;;;;;;5095294;28;19924;-68
2024/01/10 12:49:03;;;;;;;;;;;25.30;99.90;;;;;;5095194;28;19920;-69
2024/01/10 12:51:30;;;;;;;;;;;25.30;99.90;;;;;;5095456;28;19913;-71
2024/01/10 12:53:59;;;;;;;;;;;25.30;99.90;;;;;;5095252;28;19942;-68
2024/01/10 12:56:26;;;;;;;;;;;25.20;99.90;;;;;;5095155;28;20269;-71
2024/01/10 12:58:54;;;;;;;;;;;25.20;99.90;;;;;;5095339;28;20387;-66
2024/01/10 13:01:21;;;;;;;;;;;25.10;99.90;;;;;;5095154;28;19912;-68
2024/01/10 13:03:51;;;;;;;;;;;25.10;99.90;;;;;;5095007;28;19916;-67
2024/01/10 13:06:18;;;;;;;;;;;25.00;99.90;;;;;;5094968;28;19912;-68
2024/01/10 13:08:45;;;;;;;;;;;24.90;99.90;;;;;;5095124;28;19951;-69
2024/01/10 13:11:13;;;;;;;;;;;24.90;99.90;;;;;;5095161;28;19935;-67
2024/01/10 13:13:42;;;;;;;;;;;24.90;99.90;;;;;;5094927;28;20435;-69
2024/01/10 13:16:12;;;;;;;;;;;25.00;99.90;;;;;;5094596;28;19912;-67
2024/01/10 13:18:39;;;;;;;;;;;24.90;99.90;;;;;;5095076;28;20341;-67
2024/01/10 13:21:07;;;;;;;;;;;25.00;99.90;;;;;;5094863;28;20273;-66
2024/01/10 13:23:34;;;;;;;;;;;25.00;99.90;;;;;;5094571;28;19912;-67
2024/01/10 13:26:01;;;;;;;;;;;25.00;99.90;;;;;;5094227;28;19916;-72
2024/01/10 13:28:28;;;;;;;;;;;25.00;99.90;;;;;;5094452;28;19920;-69
2024/01/10 13:30:57;;;;;;;;;;;25.00;99.90;;;;;;5094703;28;19916;-68
2024/01/10 13:33:25;;;;;;;;;;;25.00;99.90;;;;;;5094696;28;19908;-74
2024/01/10 13:35:52;;;;;;;;;;;24.90;99.90;;;;;;5094508;28;19978;-69
2024/01/10 13:38:18;;;;;;;;;;;24.90;99.90;;;;;;5094198;28;19920;-67
2024/01/10 13:40:45;;;;;;;;;;;25.00;99.90;;;;;;5094521;28;19908;-67
2024/01/10 13:43:12;;;;;;;;;;;25.00;99.90;;;;;;5094424;28;20410;-66
2024/01/10 13:45:38;;;;;;;;;;;25.00;99.90;;;;;;5111267;27;19912;-68
2024/01/10 13:48:05;;;;;;;;;;;25.00;99.90;;;;;;5114325;28;19915;-70
2024/01/10 13:50:32;;;;;;;;;;;25.00;99.90;;;;;;5114821;28;19915;-65
2024/01/10 13:52:59;;;;;;;;;;;24.90;99.90;;;;;;5114635;28;19923;-72
2024/01/10 13:55:26;;;;;;;;;;;24.90;99.90;;;;;;5114404;28;19920;-67
2024/01/10 13:57:53;;;;;;;;;;;24.90;99.90;;;;;;5114286;28;19934;-66
2024/01/10 14:00:20;;;;;;;;;;;24.90;99.90;;;;;;5114252;28;19981;-72
2024/01/10 14:02:47;;;;;;;;;;;24.90;99.90;;;;;;5114446;28;20353;-70
2024/01/10 14:05:13;;;;;;;;;;;24.90;99.90;;;;;;5113763;28;19919;-67
2024/01/10 14:07:44;;;;;;;;;;;24.80;99.90;;;;;;5113806;28;19922;-69
2024/01/10 14:10:11;;;;;;;;;;;24.90;99.90;;;;;;5114275;28;19908;-68
2024/01/10 14:12:37;;;;;;;;;;;24.90;99.90;;;;;;5113557;28;20322;-67
2024/01/10 14:15:04;;;;;;;;;;;24.90;99.90;;;;;;5093682;28;19958;-67
2024/01/10 14:17:31;;;;;;;;;;;24.90;99.90;;;;;;5094059;28;19979;-71
2024/01/10 14:19:57;;;;;;;;;;;24.80;99.90;;;;;;5093932;28;20418;-68